Time;durP1;ratioP1;P1;durP2;ratioP2;P2;SDS_P1;SDS_P2;PMS_P1;PMS_P2;Temp;Humidity;BMP_temperature;BMP_pressure;BME280_temperature;BME280_humidity;BME280_pressure;Samples;Min_cycle;Max_cycle;Signal;HPM_P1;HPM_P2
2023/07/28 00:00:57;;;;;;;2.67;2.43;;;;;;;;;;5031967;28;20636;-68
2023/07/28 00:03:25;;;;;;;2.50;2.30;;;;;;;;;;5032102;28;20620;-67
2023/07/28 00:05:53;;;;;;;2.20;2.00;;;;;;;;;;5032154;28;20659;-68
2023/07/28 00:08:21;;;;;;;2.40;2.20;;;;;;;;;;5033049;28;20628;-69
2023/07/28 00:10:50;;;;;;;3.30;2.63;;;;;;;;;;5031575;28;20667;-69
2023/07/28 00:13:18;;;;;;;2.60;2.50;;;;;;;;;;5032975;28;20624;-68
2023/07/28 00:15:46;;;;;;;2.20;2.07;;;;;;;;;;5032418;28;20627;-67
2023/07/28 00:18:18;;;;;;;2.30;2.20;;;;;;;;;;5033210;28;20596;-69
2023/07/28 00:20:46;;;;;;;2.30;2.20;;;;;;;;;;5031660;28;21026;-69
2023/07/28 00:23:14;;;;;;;2.33;2.23;;;;;;;;;;5032803;28;20594;-68
2023/07/28 00:25:42;;;;;;;2.70;2.60;;;;;;;;;;5031811;28;20698;-68
2023/07/28 00:28:11;;;;;;;3.30;2.40;;;;;;;;;;5025579;28;20632;-68
2023/07/28 00:30:39;;;;;;;2.60;2.40;;;;;;;;;;5031648;28;21073;-67
2023/07/28 00:33:07;;;;;;;4.87;2.67;;;;;;;;;;5032293;28;20657;-68
2023/07/28 00:35:36;;;;;;;2.40;2.30;;;;;;;;;;5014453;28;20624;-67
2023/07/28 00:38:05;;;;;;;2.70;2.50;;;;;;;;;;5031879;28;21189;-68
2023/07/28 00:40:35;;;;;;;2.53;2.33;;;;;;;;;;5031121;28;20997;-67
2023/07/28 00:43:03;;;;;;;2.33;2.23;;;;;;;;;;5032393;28;21193;-68
2023/07/28 00:45:32;;;;;;;2.60;2.40;;;;;;;;;;5030922;28;21022;-68
2023/07/28 00:48:01;;;;;;;2.90;2.43;;;;;;;;;;5030930;28;20959;-68
2023/07/28 00:50:29;;;;;;;2.77;2.43;;;;;;;;;;5031260;28;20630;-68
2023/07/28 00:52:59;;;;;;;3.60;2.83;;;;;;;;;;5032254;28;20628;-68
2023/07/28 00:55:27;;;;;;;4.93;2.30;;;;;;;;;;5031817;28;20624;-67
2023/07/28 00:57:56;;;;;;;3.27;2.97;;;;;;;;;;5030332;28;20995;-67
2023/07/28 01:00:24;;;;;;;2.53;2.33;;;;;;;;;;5015710;28;20637;-65
2023/07/28 01:02:52;;;;;;;2.77;2.40;;;;;;;;;;5024548;28;20642;-65
2023/07/28 01:05:22;;;;;;;3.00;2.30;;;;;;;;;;5015743;28;20670;-66
2023/07/28 01:07:55;;;;;;;2.43;2.23;;;;;;;;;;5031484;28;20632;-65
2023/07/28 01:10:27;;;;;;;2.60;2.40;;;;;;;;;;5014359;28;20730;-66
2023/07/28 01:12:55;;;;;;;2.37;2.20;;;;;;;;;;5014519;28;20615;-66
2023/07/28 01:15:23;;;;;;;2.60;2.40;;;;;;;;;;5031942;28;20631;-66
2023/07/28 01:17:52;;;;;;;2.93;2.40;;;;;;;;;;5032339;28;20691;-65
2023/07/28 01:20:23;;;;;;;2.70;2.50;;;;;;;;;;5010829;28;20621;-66
2023/07/28 01:23:03;;;;;;;2.40;2.30;;;;;;;;;;4995085;28;20572;-66
2023/07/28 01:25:38;;;;;;;2.63;2.50;;;;;;;;;;4994487;28;20628;-65
2023/07/28 01:28:08;;;;;;;2.80;2.60;;;;;;;;;;5011953;28;20577;-66
2023/07/28 01:30:36;;;;;;;2.50;2.33;;;;;;;;;;5011902;28;20613;-66
2023/07/28 01:33:07;;;;;;;2.30;2.20;;;;;;;;;;5020198;28;21269;-66
2023/07/28 01:35:37;;;;;;;2.50;2.40;;;;;;;;;;5031657;28;20606;-66
2023/07/28 01:38:05;;;;;;;3.50;2.77;;;;;;;;;;5031953;28;21106;-66
2023/07/28 01:40:34;;;;;;;2.80;2.43;;;;;;;;;;5031585;28;20620;-66
2023/07/28 01:43:02;;;;;;;2.50;2.40;;;;;;;;;;5031297;28;20669;-66
2023/07/28 01:45:32;;;;;;;3.90;2.60;;;;;;;;;;5030426;28;20979;-66
2023/07/28 01:48:00;;;;;;;3.33;3.03;;;;;;;;;;5031325;28;20673;-66
2023/07/28 01:50:29;;;;;;;3.90;3.60;;;;;;;;;;5013244;28;20628;-66
2023/07/28 01:52:57;;;;;;;2.90;2.70;;;;;;;;;;5013756;28;20612;-66
2023/07/28 01:55:25;;;;;;;2.73;2.40;;;;;;;;;;5030666;28;20616;-66
2023/07/28 01:57:56;;;;;;;2.93;2.73;;;;;;;;;;5013089;28;20637;-66
2023/07/28 02:00:24;;;;;;;3.90;2.53;;;;;;;;;;4995379;28;20608;-66
2023/07/28 02:02:55;;;;;;;2.97;2.77;;;;;;;;;;5013162;28;20619;-66
2023/07/28 02:05:23;;;;;;;2.70;2.50;;;;;;;;;;5029051;28;20619;-66
2023/07/28 02:07:51;;;;;;;2.53;2.43;;;;;;;;;;4997439;28;20630;-66
2023/07/28 02:10:19;;;;;;;3.13;2.93;;;;;;;;;;5030483;28;20667;-66
2023/07/28 02:12:48;;;;;;;2.70;2.50;;;;;;;;;;4997172;28;20620;-66
2023/07/28 02:15:16;;;;;;;2.70;2.50;;;;;;;;;;5030469;28;20639;-66
2023/07/28 02:17:45;;;;;;;2.37;2.17;;;;;;;;;;5030500;28;21021;-66
2023/07/28 02:20:15;;;;;;;2.77;2.57;;;;;;;;;;5030697;28;20620;-66
2023/07/28 02:22:44;;;;;;;3.27;3.07;;;;;;;;;;5013297;28;20635;-66
2023/07/28 02:25:12;;;;;;;3.50;2.60;;;;;;;;;;5030652;28;20620;-66
2023/07/28 02:27:40;;;;;;;2.80;2.60;;;;;;;;;;5030372;28;20643;-67
2023/07/28 02:30:10;;;;;;;2.30;2.20;;;;;;;;;;5031230;28;20622;-66
2023/07/28 02:32:38;;;;;;;2.40;2.00;;;;;;;;;;5030165;28;20644;-66
2023/07/28 02:35:07;;;;;;;2.40;2.20;;;;;;;;;;5030631;28;20628;-66
2023/07/28 02:37:37;;;;;;;2.37;2.27;;;;;;;;;;5029767;28;21248;-66
2023/07/28 02:40:05;;;;;;;2.60;2.40;;;;;;;;;;5013580;28;20612;-66
2023/07/28 02:42:35;;;;;;;2.40;2.20;;;;;;;;;;5030191;28;20708;-66
2023/07/28 02:45:03;;;;;;;2.23;2.13;;;;;;;;;;5013371;28;20620;-67
2023/07/28 02:47:32;;;;;;;2.47;2.37;;;;;;;;;;5030164;28;20724;-66
2023/07/28 02:50:00;;;;;;;2.30;2.20;;;;;;;;;;5030577;28;21242;-66
2023/07/28 02:52:29;;;;;;;2.60;2.40;;;;;;;;;;4995977;28;20640;-66
2023/07/28 02:54:58;;;;;;;2.70;2.60;;;;;;;;;;5013563;28;20620;-66
2023/07/28 02:57:26;;;;;;;2.03;1.93;;;;;;;;;;5012284;28;20624;-66
2023/07/28 02:59:55;;;;;;;2.23;2.13;;;;;;;;;;5030977;28;21193;-66
2023/07/28 03:02:23;;;;;;;2.40;2.30;;;;;;;;;;5013906;28;20632;-66
2023/07/28 03:04:54;;;;;;;2.33;2.23;;;;;;;;;;5014666;28;20607;-66
2023/07/28 03:07:25;;;;;;;4.63;2.43;;;;;;;;;;5032857;28;21288;-66
2023/07/28 03:10:03;;;;;;;5.03;2.20;;;;;;;;;;5014027;28;20604;-66
2023/07/28 03:12:32;;;;;;;3.27;2.13;;;;;;;;;;4996857;28;20675;-66
2023/07/28 03:15:01;;;;;;;2.37;2.27;;;;;;;;;;4997454;28;20615;-66
2023/07/28 03:17:29;;;;;;;2.33;2.00;;;;;;;;;;5001611;28;20632;-66
2023/07/28 03:19:57;;;;;;;3.10;2.17;;;;;;;;;;5034039;28;20624;-66
2023/07/28 03:22:25;;;;;;;3.53;2.87;;;;;;;;;;5016060;28;21185;-66
2023/07/28 03:24:53;;;;;;;2.97;2.80;;;;;;;;;;5018247;28;20605;-66
2023/07/28 03:27:24;;;;;;;2.93;2.60;;;;;;;;;;4997070;28;20726;-66
2023/07/28 03:29:53;;;;;;;2.77;2.60;;;;;;;;;;4996635;28;20596;-66
2023/07/28 03:32:24;;;;;;;2.90;2.53;;;;;;;;;;4997070;28;20588;-66
2023/07/28 03:34:52;;;;;;;2.37;2.17;;;;;;;;;;5014245;28;20623;-66
2023/07/28 03:37:22;;;;;;;2.03;1.90;;;;;;;;;;5014849;28;20946;-66
2023/07/28 03:39:50;;;;;;;2.87;2.67;;;;;;;;;;5034227;28;20603;-66
2023/07/28 03:42:19;;;;;;;1.93;1.83;;;;;;;;;;5015954;28;20987;-66
2023/07/28 03:44:49;;;;;;;1.90;1.80;;;;;;;;;;5015685;28;20586;-66
2023/07/28 03:47:17;;;;;;;4.83;2.37;;;;;;;;;;5016062;28;20658;-66
2023/07/28 03:49:46;;;;;;;1.97;1.87;;;;;;;;;;5015332;28;21189;-66
2023/07/28 03:52:14;;;;;;;2.70;2.50;;;;;;;;;;5033720;28;20619;-66
2023/07/28 03:54:42;;;;;;;2.70;2.60;;;;;;;;;;5033081;28;20630;-66
2023/07/28 03:57:10;;;;;;;1.87;1.77;;;;;;;;;;5033295;28;20620;-66
2023/07/28 03:59:39;;;;;;;1.90;1.80;;;;;;;;;;5032854;28;21046;-66
2023/07/28 04:02:08;;;;;;;2.10;1.97;;;;;;;;;;5031972;28;20670;-66
2023/07/28 04:04:37;;;;;;;1.73;1.63;;;;;;;;;;5015549;28;21005;-66
2023/07/28 04:07:05;;;;;;;1.70;1.60;;;;;;;;;;5032443;28;21262;-66
2023/07/28 04:09:34;;;;;;;1.83;1.73;;;;;;;;;;5032666;28;20635;-67
2023/07/28 04:12:02;;;;;;;2.00;1.90;;;;;;;;;;5031843;28;20664;-67
2023/07/28 04:14:30;;;;;;;1.90;1.80;;;;;;;;;;5014855;28;20634;-66
2023/07/28 04:16:58;;;;;;;1.90;1.80;;;;;;;;;;5032751;28;20634;-66
2023/07/28 04:19:29;;;;;;;1.70;1.60;;;;;;;;;;5031471;28;20619;-66
2023/07/28 04:21:57;;;;;;;2.03;1.93;;;;;;;;;;5032269;28;20596;-66
2023/07/28 04:24:27;;;;;;;2.17;1.97;;;;;;;;;;5000294;28;20970;-66
2023/07/28 04:26:55;;;;;;;1.83;1.73;;;;;;;;;;5032282;28;20783;-66
2023/07/28 04:29:23;;;;;;;2.43;2.33;;;;;;;;;;5033037;28;20626;-66
2023/07/28 04:31:52;;;;;;;1.97;1.67;;;;;;;;;;5014680;28;20628;-66
2023/07/28 04:34:29;;;;;;;2.80;2.07;;;;;;;;;;5014990;28;20652;-66
2023/07/28 04:37:36;;;;;;;1.80;1.70;;;;;;;;;;5014545;28;20969;-66
2023/07/28 04:40:04;;;;;;;1.87;1.77;;;;;;;;;;5032648;28;21203;-67
2023/07/28 04:42:37;;;;;;;1.90;1.80;;;;;;;;;;5014886;28;20615;-66
2023/07/28 04:45:07;;;;;;;2.00;1.90;;;;;;;;;;5014723;28;20620;-67
2023/07/28 04:47:35;;;;;;;2.43;2.33;;;;;;;;;;5013659;28;20674;-66
2023/07/28 04:50:06;;;;;;;3.50;2.57;;;;;;;;;;5014752;28;20624;-66
2023/07/28 04:52:57;;;;;;;1.93;1.77;;;;;;;;;;5013050;28;20623;-67
2023/07/28 04:55:43;;;;;;;2.40;1.80;;;;;;;;;;5013135;28;20618;-67
2023/07/28 04:58:12;;;;;;;2.47;1.80;;;;;;;;;;5032271;28;20715;-66
2023/07/28 05:00:50;;;;;;;1.83;1.73;;;;;;;;;;5014286;28;20616;-67
2023/07/28 05:03:18;;;;;;;2.20;2.10;;;;;;;;;;5013550;28;21191;-66
2023/07/28 05:05:54;;;;;;;1.93;1.83;;;;;;;;;;5010103;28;20979;-66
2023/07/28 05:08:23;;;;;;;2.20;2.00;;;;;;;;;;5014728;28;20717;-66
2023/07/28 05:10:51;;;;;;;2.10;2.00;;;;;;;;;;5013349;28;21244;-66
2023/07/28 05:13:19;;;;;;;1.90;1.80;;;;;;;;;;5031623;28;20972;-66
2023/07/28 05:15:55;;;;;;;2.00;1.90;;;;;;;;;;5008764;28;20607;-67
2023/07/28 05:18:46;;;;;;;2.67;2.47;;;;;;;;;;5027306;28;20628;-66
2023/07/28 05:21:44;;;;;;;2.33;2.13;;;;;;;;;;5027928;28;20647;-66
2023/07/28 05:24:15;;;;;;;1.83;1.73;;;;;;;;;;5012569;28;20612;-66
2023/07/28 05:26:44;;;;;;;2.20;2.10;;;;;;;;;;5009360;28;21001;-66
2023/07/28 05:29:12;;;;;;;3.20;2.83;;;;;;;;;;5018133;28;20663;-67
2023/07/28 05:31:41;;;;;;;2.53;2.40;;;;;;;;;;5013278;28;21001;-66
2023/07/28 05:34:18;;;;;;;2.77;2.57;;;;;;;;;;5012721;28;20618;-66
2023/07/28 05:36:48;;;;;;;2.87;2.63;;;;;;;;;;4998769;28;20620;-66
2023/07/28 05:39:16;;;;;;;3.00;2.80;;;;;;;;;;5013118;28;21035;-67
2023/07/28 05:41:46;;;;;;;2.50;2.40;;;;;;;;;;5008912;28;20600;-66
2023/07/28 05:44:16;;;;;;;2.47;2.27;;;;;;;;;;5030615;28;20635;-65
2023/07/28 05:46:45;;;;;;;2.90;2.70;;;;;;;;;;5029811;28;20630;-66
2023/07/28 05:49:13;;;;;;;2.40;2.20;;;;;;;;;;5012165;28;20678;-67
2023/07/28 05:51:42;;;;;;;2.13;2.03;;;;;;;;;;5012970;28;20622;-68
2023/07/28 05:54:15;;;;;;;4.53;2.40;;;;;;;;;;5012898;28;21398;-68
2023/07/28 05:56:43;;;;;;;1.90;1.80;;;;;;;;;;5013014;28;20607;-67
2023/07/28 05:59:11;;;;;;;5.10;2.43;;;;;;;;;;5009456;28;20632;-67
2023/07/28 06:01:40;;;;;;;2.40;2.30;;;;;;;;;;5003089;28;20633;-67
2023/07/28 06:04:28;;;;;;;2.53;2.33;;;;;;;;;;5025075;28;21162;-67
2023/07/28 06:06:59;;;;;;;2.00;1.90;;;;;;;;;;5013522;28;21161;-67
2023/07/28 06:09:29;;;;;;;2.60;2.13;;;;;;;;;;5012912;28;20668;-66
2023/07/28 06:11:57;;;;;;;2.30;2.10;;;;;;;;;;5031070;28;20666;-66
2023/07/28 06:14:28;;;;;;;2.30;2.20;;;;;;;;;;5013417;28;20614;-67
2023/07/28 06:16:57;;;;;;;2.10;2.00;;;;;;;;;;5011579;28;20632;-66
2023/07/28 06:19:29;;;;;;;2.63;1.90;;;;;;;;;;5012971;28;20679;-67
2023/07/28 06:21:57;;;;;;;2.10;2.00;;;;;;;;;;5013696;28;21169;-66
2023/07/28 06:24:25;;;;;;;1.70;1.60;;;;;;;;;;5028950;28;20636;-67
2023/07/28 06:26:55;;;;;;;1.60;1.50;;;;;;;;;;5030604;28;21012;-66
2023/07/28 06:29:23;;;;;;;2.00;1.90;;;;;;;;;;5030316;28;20670;-66
2023/07/28 06:31:51;;;;;;;2.37;2.17;;;;;;;;;;5026190;28;20690;-66
2023/07/28 06:34:19;;;;;;;1.70;1.60;;;;;;;;;;5028614;28;20632;-67
2023/07/28 06:36:48;;;;;;;2.10;1.67;;;;;;;;;;5009589;28;20623;-67
2023/07/28 06:39:16;;;;;;;2.43;2.23;;;;;;;;;;5034091;28;20620;-67
2023/07/28 06:41:44;;;;;;;2.07;1.97;;;;;;;;;;5034879;28;20619;-67
2023/07/28 06:44:16;;;;;;;1.53;1.43;;;;;;;;;;5017056;28;20610;-67
2023/07/28 06:46:44;;;;;;;3.70;2.23;;;;;;;;;;5033298;28;20638;-67
2023/07/28 06:49:12;;;;;;;4.40;1.80;;;;;;;;;;5034093;28;20666;-67
2023/07/28 06:51:41;;;;;;;5.47;1.70;;;;;;;;;;5034879;28;20624;-67
2023/07/28 06:54:13;;;;;;;1.90;1.80;;;;;;;;;;5034077;28;20584;-67
2023/07/28 06:56:41;;;;;;;1.73;1.63;;;;;;;;;;5016291;28;20653;-67
2023/07/28 06:59:10;;;;;;;2.10;2.00;;;;;;;;;;5015643;28;20628;-67
2023/07/28 07:01:39;;;;;;;1.97;1.87;;;;;;;;;;5030588;28;20627;-66
2023/07/28 07:04:08;;;;;;;1.80;1.70;;;;;;;;;;5025875;28;20669;-66
2023/07/28 07:06:36;;;;;;;2.70;1.93;;;;;;;;;;5029921;28;21107;-67
2023/07/28 07:09:05;;;;;;;1.77;1.67;;;;;;;;;;5015196;28;20674;-66
2023/07/28 07:11:34;;;;;;;1.80;1.70;;;;;;;;;;5015402;28;20686;-68
2023/07/28 07:14:02;;;;;;;1.93;1.60;;;;;;;;;;5033141;28;21299;-67
2023/07/28 07:16:30;;;;;;;2.17;1.80;;;;;;;;;;5014380;28;20630;-67
2023/07/28 07:19:00;;;;;;;3.40;1.60;;;;;;;;;;5033331;28;20632;-68
2023/07/28 07:21:29;;;;;;;1.80;1.70;;;;;;;;;;5032872;28;20633;-68
2023/07/28 07:23:57;;;;;;;2.03;1.30;;;;;;;;;;5032355;28;20976;-67
2023/07/28 07:26:28;;;;;;;2.10;2.00;;;;;;;;;;5016098;28;20612;-67
2023/07/28 07:28:56;;;;;;;2.00;1.90;;;;;;;;;;5033796;28;20663;-67
2023/07/28 07:31:24;;;;;;;2.30;2.10;;;;;;;;;;5032763;28;20624;-67
2023/07/28 07:33:53;;;;;;;1.60;1.50;;;;;;;;;;5032813;28;20627;-67
2023/07/28 07:36:22;;;;;;;2.23;2.03;;;;;;;;;;5032750;28;20956;-67
2023/07/28 07:38:50;;;;;;;1.93;1.83;;;;;;;;;;5016001;28;21161;-67
2023/07/28 07:41:20;;;;;;;1.40;1.30;;;;;;;;;;5032167;28;20999;-67
2023/07/28 07:43:48;;;;;;;1.70;1.60;;;;;;;;;;5033325;28;20681;-68
2023/07/28 07:46:17;;;;;;;3.40;1.77;;;;;;;;;;5032400;28;20624;-68
2023/07/28 07:48:45;;;;;;;1.90;1.80;;;;;;;;;;5032163;28;20663;-68
2023/07/28 07:51:13;;;;;;;1.70;1.60;;;;;;;;;;5021309;28;20637;-67
2023/07/28 07:53:43;;;;;;;1.57;1.47;;;;;;;;;;5031298;28;21262;-67
2023/07/28 07:56:11;;;;;;;1.60;1.50;;;;;;;;;;5028332;28;20983;-67
2023/07/28 07:58:39;;;;;;;1.53;1.43;;;;;;;;;;5015106;28;20592;-66
2023/07/28 08:01:08;;;;;;;2.50;2.10;;;;;;;;;;5032045;28;20595;-67
2023/07/28 08:03:37;;;;;;;2.47;2.30;;;;;;;;;;5006985;28;20619;-68
2023/07/28 08:06:06;;;;;;;2.43;2.23;;;;;;;;;;5011721;28;20679;-68
2023/07/28 08:08:34;;;;;;;1.70;1.60;;;;;;;;;;5023277;28;20624;-67
2023/07/28 08:11:03;;;;;;;2.23;1.60;;;;;;;;;;5029586;28;21043;-68
2023/07/28 08:13:31;;;;;;;2.43;1.70;;;;;;;;;;5032339;28;21192;-67
2023/07/28 08:16:00;;;;;;;1.83;1.73;;;;;;;;;;5024788;28;20625;-67
2023/07/28 08:18:28;;;;;;;2.23;1.63;;;;;;;;;;5028435;28;20682;-67
2023/07/28 08:20:56;;;;;;;3.63;2.10;;;;;;;;;;5014110;28;20624;-67
2023/07/28 08:23:24;;;;;;;1.93;1.83;;;;;;;;;;5014109;28;20689;-67
2023/07/28 08:25:53;;;;;;;2.30;2.20;;;;;;;;;;5031460;28;21004;-68
2023/07/28 08:28:22;;;;;;;2.53;2.33;;;;;;;;;;5023048;28;20639;-68
2023/07/28 08:30:56;;;;;;;4.07;2.20;;;;;;;;;;5029090;28;20660;-68
2023/07/28 08:33:24;;;;;;;2.47;2.23;;;;;;;;;;5025924;28;20617;-69
2023/07/28 08:35:52;;;;;;;3.03;2.27;;;;;;;;;;5028409;28;20635;-68
2023/07/28 08:38:20;;;;;;;2.10;2.00;;;;;;;;;;5029451;28;20625;-67
2023/07/28 08:40:48;;;;;;;2.10;2.00;;;;;;;;;;5028599;28;21130;-68
2023/07/28 08:43:17;;;;;;;2.10;2.00;;;;;;;;;;5027962;28;20634;-67
2023/07/28 08:45:46;;;;;;;1.80;1.70;;;;;;;;;;5028673;28;20628;-67
2023/07/28 08:48:15;;;;;;;2.30;2.20;;;;;;;;;;5030122;28;20624;-67
2023/07/28 08:59:08;;;;;;;2.30;2.20;;;;;;;;;;5019852;28;21228;-67
2023/07/28 09:01:43;;;;;;;2.33;2.13;;;;;;;;;;5027375;28;20624;-67
2023/07/28 09:04:11;;;;;;;2.10;2.00;;;;;;;;;;5031455;28;20583;-67
2023/07/28 09:06:40;;;;;;;2.27;2.13;;;;;;;;;;5031148;28;20967;-69
2023/07/28 09:09:08;;;;;;;2.23;2.03;;;;;;;;;;5031219;28;20666;-69
2023/07/28 09:11:45;;;;;;;2.20;2.10;;;;;;;;;;5012574;28;20725;-68
2023/07/28 09:14:13;;;;;;;2.20;2.10;;;;;;;;;;5023994;28;20651;-68
2023/07/28 09:16:43;;;;;;;3.73;2.20;;;;;;;;;;5026754;28;20642;-67
2023/07/28 09:19:12;;;;;;;2.53;2.33;;;;;;;;;;5024911;28;20625;-67
2023/07/28 09:21:41;;;;;;;2.07;1.87;;;;;;;;;;5027391;28;20642;-67
2023/07/28 09:24:10;;;;;;;5.73;2.17;;;;;;;;;;5010384;28;20620;-67
2023/07/28 09:26:39;;;;;;;1.70;1.60;;;;;;;;;;5027997;28;20998;-67
2023/07/28 09:29:17;;;;;;;3.40;2.90;;;;;;;;;;5012024;28;20623;-67
2023/07/28 09:31:47;;;;;;;2.40;2.20;;;;;;;;;;5022544;28;20665;-67
2023/07/28 09:34:25;;;;;;;3.40;1.83;;;;;;;;;;5029924;28;20628;-67
2023/07/28 09:36:54;;;;;;;2.50;1.77;;;;;;;;;;5030819;28;20618;-66
2023/07/28 09:39:22;;;;;;;2.27;2.07;;;;;;;;;;5028838;28;20634;-67
2023/07/28 09:41:51;;;;;;;2.03;1.93;;;;;;;;;;5028217;28;20636;-66
2023/07/28 09:44:19;;;;;;;1.87;1.77;;;;;;;;;;5030413;28;20636;-67
2023/07/28 09:46:51;;;;;;;1.90;1.80;;;;;;;;;;5009423;28;20627;-67
2023/07/28 09:49:22;;;;;;;1.70;1.60;;;;;;;;;;5011177;28;20592;-68
2023/07/28 09:51:52;;;;;;;2.37;2.20;;;;;;;;;;5028540;28;20603;-67
2023/07/28 09:54:25;;;;;;;2.60;2.10;;;;;;;;;;5030892;28;20624;-68
2023/07/28 09:56:56;;;;;;;2.27;2.07;;;;;;;;;;5029853;28;20604;-67
2023/07/28 09:59:25;;;;;;;2.70;1.57;;;;;;;;;;5031639;28;20584;-67
2023/07/28 10:01:55;;;;;;;3.10;2.27;;;;;;;;;;5029660;28;20632;-67
2023/07/28 10:04:24;;;;;;;3.93;2.10;;;;;;;;;;5030248;28;20630;-67
2023/07/28 10:06:56;;;;;;;2.20;2.10;;;;;;;;;;5028414;28;20977;-68
2023/07/28 10:09:25;;;;;;;2.40;1.73;;;;;;;;;;5030256;28;20653;-67
2023/07/28 10:11:53;;;;;;;2.30;2.20;;;;;;;;;;5026874;28;20724;-67
2023/07/28 10:14:28;;;;;;;1.70;1.60;;;;;;;;;;5027758;28;21146;-68
2023/07/28 10:16:57;;;;;;;1.93;1.70;;;;;;;;;;5029667;28;20607;-67
2023/07/28 10:19:26;;;;;;;1.70;1.60;;;;;;;;;;5029964;28;20636;-67
2023/07/28 10:22:00;;;;;;;2.50;1.77;;;;;;;;;;5030117;28;20618;-66
2023/07/28 10:24:43;;;;;;;1.63;1.53;;;;;;;;;;5028825;28;20612;-67
2023/07/28 10:27:11;;;;;;;2.20;2.03;;;;;;;;;;5029810;28;20624;-67
2023/07/28 10:29:39;;;;;;;2.63;2.43;;;;;;;;;;5029248;28;21199;-67
2023/07/28 10:32:09;;;;;;;2.60;2.30;;;;;;;;;;5030544;28;20620;-67
2023/07/28 10:34:37;;;;;;;2.50;2.40;;;;;;;;;;5029765;28;20628;-67
2023/07/28 10:37:07;;;;;;;3.13;2.83;;;;;;;;;;5031113;28;20604;-67
2023/07/28 10:39:36;;;;;;;2.30;2.20;;;;;;;;;;5026058;28;20624;-67
2023/07/28 10:42:06;;;;;;;5.03;2.20;;;;;;;;;;5030569;28;20634;-67
2023/07/28 10:44:35;;;;;;;2.13;1.80;;;;;;;;;;5013078;28;21035;-66
2023/07/28 10:47:03;;;;;;;2.33;2.23;;;;;;;;;;5027321;28;20627;-67
2023/07/28 10:49:33;;;;;;;1.93;1.80;;;;;;;;;;5028265;28;20646;-67
2023/07/28 10:52:02;;;;;;;2.17;1.97;;;;;;;;;;5030321;28;20604;-68
2023/07/28 10:54:32;;;;;;;3.17;2.13;;;;;;;;;;5011901;28;21283;-67
2023/07/28 10:57:03;;;;;;;1.60;1.50;;;;;;;;;;5029525;28;21406;-67
2023/07/28 10:59:31;;;;;;;5.33;1.57;;;;;;;;;;5019816;28;20628;-67
2023/07/28 11:01:59;;;;;;;4.10;1.57;;;;;;;;;;5026018;28;20651;-67
2023/07/28 11:04:28;;;;;;;1.97;1.87;;;;;;;;;;5026849;28;21066;-67
2023/07/28 11:06:58;;;;;;;2.23;1.80;;;;;;;;;;5028751;28;20628;-66
2023/07/28 11:09:26;;;;;;;2.10;2.00;;;;;;;;;;5011382;28;21197;-66
2023/07/28 11:11:53;;;;;;;2.70;2.23;;;;;;;;;;5029908;28;20675;-67
2023/07/28 11:14:22;;;;;;;2.00;1.90;;;;;;;;;;5026013;28;20640;-67
2023/07/28 11:16:50;;;;;;;2.73;1.80;;;;;;;;;;4999532;28;20636;-67
2023/07/28 11:19:24;;;;;;;2.20;2.10;;;;;;;;;;5029860;28;20632;-66
2023/07/28 11:21:53;;;;;;;1.90;1.80;;;;;;;;;;5030212;28;20603;-67
2023/07/28 11:24:23;;;;;;;2.50;2.10;;;;;;;;;;5027065;28;20624;-67
2023/07/28 11:26:51;;;;;;;2.10;2.00;;;;;;;;;;5025999;28;20629;-67
2023/07/28 11:29:20;;;;;;;2.93;2.13;;;;;;;;;;5030486;28;20632;-67
2023/07/28 11:31:49;;;;;;;2.43;2.33;;;;;;;;;;5026957;28;20671;-67
2023/07/28 11:34:18;;;;;;;2.03;1.93;;;;;;;;;;5029394;28;20634;-67
2023/07/28 11:36:46;;;;;;;4.00;2.13;;;;;;;;;;5014381;28;21039;-68
2023/07/28 11:39:15;;;;;;;2.93;2.53;;;;;;;;;;5023501;28;20635;-66
2023/07/28 11:41:44;;;;;;;3.13;2.77;;;;;;;;;;5028414;28;20627;-67
2023/07/28 11:44:12;;;;;;;2.70;2.50;;;;;;;;;;5018162;28;21062;-67
2023/07/28 11:46:41;;;;;;;3.40;2.60;;;;;;;;;;5028805;28;21219;-66
2023/07/28 11:49:11;;;;;;;2.93;2.60;;;;;;;;;;5031095;28;20639;-66
2023/07/28 11:51:43;;;;;;;3.07;2.77;;;;;;;;;;5029336;28;20659;-66
2023/07/28 11:54:13;;;;;;;4.00;2.93;;;;;;;;;;5026798;28;20601;-67
2023/07/28 11:56:42;;;;;;;3.37;3.17;;;;;;;;;;5027330;28;20637;-67
2023/07/28 11:59:11;;;;;;;2.53;2.43;;;;;;;;;;5026513;28;21401;-65
2023/07/28 12:01:52;;;;;;;4.40;2.83;;;;;;;;;;5028808;28;21229;-65
2023/07/28 12:04:20;;;;;;;4.27;3.90;;;;;;;;;;5008915;28;20616;-67
2023/07/28 12:07:12;;;;;;;3.07;2.87;;;;;;;;;;5030816;28;21012;-67
2023/07/28 12:09:50;;;;;;;2.50;2.30;;;;;;;;;;5030113;28;21134;-67
2023/07/28 12:12:19;;;;;;;4.97;3.40;;;;;;;;;;5020534;28;20652;-67
2023/07/28 12:14:51;;;;;;;3.07;2.73;;;;;;;;;;5031055;28;20641;-66
2023/07/28 12:17:19;;;;;;;3.23;3.00;;;;;;;;;;5027395;28;21103;-67
2023/07/28 12:20:00;;;;;;;3.33;3.13;;;;;;;;;;5030164;28;20624;-65
2023/07/28 12:22:28;;;;;;;3.30;3.00;;;;;;;;;;5029803;28;21274;-66
2023/07/28 12:24:58;;;;;;;3.87;3.57;;;;;;;;;;5029668;28;20620;-66
2023/07/28 12:27:26;;;;;;;3.33;3.13;;;;;;;;;;5031284;28;20624;-66
2023/07/28 12:29:56;;;;;;;3.60;3.30;;;;;;;;;;5032417;28;20643;-67
2023/07/28 12:32:24;;;;;;;3.70;3.40;;;;;;;;;;5031825;28;20664;-67
2023/07/28 12:34:53;;;;;;;3.13;2.93;;;;;;;;;;5026276;28;20615;-66
2023/07/28 12:37:21;;;;;;;3.70;3.30;;;;;;;;;;5031410;28;20659;-66
2023/07/28 12:39:49;;;;;;;4.10;3.80;;;;;;;;;;5031809;28;20682;-67
2023/07/28 12:42:18;;;;;;;3.10;2.90;;;;;;;;;;5032785;28;20650;-67
2023/07/28 12:44:46;;;;;;;3.87;3.67;;;;;;;;;;5031251;28;20628;-67
2023/07/28 12:47:15;;;;;;;3.87;3.53;;;;;;;;;;5015929;28;20633;-67
2023/07/28 12:49:44;;;;;;;3.60;3.30;;;;;;;;;;5025918;28;20624;-66
2023/07/28 12:52:12;;;;;;;5.57;3.60;;;;;;;;;;5031927;28;20660;-67
2023/07/28 12:54:42;;;;;;;4.33;3.93;;;;;;;;;;5031887;28;20631;-67
2023/07/28 12:57:12;;;;;;;3.83;3.47;;;;;;;;;;5032650;28;20588;-67
2023/07/28 12:59:40;;;;;;;3.87;3.57;;;;;;;;;;5030954;28;20627;-67
2023/07/28 13:02:08;;;;;;;4.13;3.77;;;;;;;;;;5032693;28;20976;-66
2023/07/28 13:04:38;;;;;;;3.57;3.27;;;;;;;;;;5030309;28;21117;-67
2023/07/28 13:07:06;;;;;;;3.30;3.10;;;;;;;;;;5032944;28;20628;-67
2023/07/28 13:09:34;;;;;;;4.37;3.97;;;;;;;;;;5033380;28;20623;-68
2023/07/28 13:12:03;;;;;;;4.17;3.70;;;;;;;;;;5019692;28;20683;-67
2023/07/28 13:14:31;;;;;;;4.20;3.90;;;;;;;;;;5023825;28;21186;-68
2023/07/28 13:16:59;;;;;;;4.50;4.10;;;;;;;;;;5025699;28;20640;-67
2023/07/28 13:19:27;;;;;;;4.13;3.43;;;;;;;;;;5021027;28;20624;-67
2023/07/28 13:21:57;;;;;;;3.57;3.37;;;;;;;;;;5008512;28;20976;-67
2023/07/28 13:24:25;;;;;;;4.00;3.60;;;;;;;;;;5028251;28;20631;-67
2023/07/28 13:26:53;;;;;;;4.67;4.17;;;;;;;;;;5025918;28;20628;-69
2023/07/28 13:29:21;;;;;;;4.10;3.80;;;;;;;;;;5012931;28;20619;-69
2023/07/28 13:31:49;;;;;;;3.40;3.20;;;;;;;;;;5024987;28;21032;-66
2023/07/28 13:34:18;;;;;;;3.60;3.40;;;;;;;;;;5031982;28;20652;-67
2023/07/28 13:36:46;;;;;;;3.87;3.40;;;;;;;;;;5025356;28;20646;-66
2023/07/28 13:39:15;;;;;;;3.43;3.23;;;;;;;;;;5031526;28;20806;-67
2023/07/28 13:41:43;;;;;;;4.10;3.60;;;;;;;;;;5028708;28;21176;-66
2023/07/28 13:44:12;;;;;;;4.87;3.90;;;;;;;;;;5032007;28;20634;-68
2023/07/28 13:46:40;;;;;;;5.80;4.20;;;;;;;;;;5029467;28;20634;-68
2023/07/28 13:49:08;;;;;;;3.77;3.53;;;;;;;;;;5030017;28;20634;-68
2023/07/28 13:51:36;;;;;;;3.93;3.63;;;;;;;;;;5029075;28;21026;-67
2023/07/28 13:54:04;;;;;;;4.00;3.43;;;;;;;;;;5029844;28;20620;-67
2023/07/28 13:56:34;;;;;;;5.10;4.70;;;;;;;;;;5028946;28;20632;-67
2023/07/28 13:59:02;;;;;;;3.60;3.30;;;;;;;;;;5011373;28;20636;-68
2023/07/28 14:01:30;;;;;;;3.87;3.60;;;;;;;;;;5026861;28;20630;-68
2023/07/28 14:03:59;;;;;;;3.23;3.03;;;;;;;;;;5031005;28;20624;-66
2023/07/28 14:06:27;;;;;;;3.00;2.80;;;;;;;;;;5021226;28;20632;-67
2023/07/28 14:08:55;;;;;;;4.03;2.93;;;;;;;;;;5018923;28;20624;-66
2023/07/28 14:11:23;;;;;;;4.10;3.80;;;;;;;;;;5016880;28;20677;-67
2023/07/28 14:13:53;;;;;;;3.10;2.90;;;;;;;;;;5021493;28;20975;-67
2023/07/28 14:16:21;;;;;;;2.93;2.80;;;;;;;;;;5025637;28;21244;-67
2023/07/28 14:18:50;;;;;;;5.03;3.30;;;;;;;;;;5031535;28;20646;-67
2023/07/28 14:21:18;;;;;;;3.20;3.00;;;;;;;;;;5027575;28;20994;-68
2023/07/28 14:23:46;;;;;;;3.90;3.67;;;;;;;;;;5030820;28;20675;-67
2023/07/28 14:26:14;;;;;;;5.87;3.80;;;;;;;;;;5031033;28;20620;-67
2023/07/28 14:28:42;;;;;;;4.67;3.77;;;;;;;;;;5031066;28;20722;-68
2023/07/28 14:31:12;;;;;;;5.80;3.70;;;;;;;;;;5030500;28;20627;-68
2023/07/28 14:33:40;;;;;;;3.60;3.37;;;;;;;;;;5010703;28;20670;-67
2023/07/28 14:36:08;;;;;;;5.33;3.27;;;;;;;;;;5031348;28;20608;-68
2023/07/28 14:38:37;;;;;;;3.50;3.17;;;;;;;;;;5031261;28;20620;-66
2023/07/28 14:41:05;;;;;;;3.60;3.37;;;;;;;;;;5010173;28;20621;-66
2023/07/28 14:43:33;;;;;;;3.67;3.37;;;;;;;;;;5011630;28;20613;-66
2023/07/28 14:46:01;;;;;;;4.33;3.20;;;;;;;;;;5011562;28;20985;-66
2023/07/28 14:48:31;;;;;;;3.10;2.90;;;;;;;;;;5023870;28;20612;-66
2023/07/28 14:50:59;;;;;;;3.80;3.50;;;;;;;;;;5030960;28;20973;-66
2023/07/28 14:53:31;;;;;;;3.47;3.17;;;;;;;;;;5013845;28;20685;-66
2023/07/28 14:56:00;;;;;;;3.57;3.27;;;;;;;;;;5031033;28;20637;-66
2023/07/28 14:58:28;;;;;;;3.30;3.10;;;;;;;;;;5033481;28;20618;-66
2023/07/28 15:00:57;;;;;;;3.00;2.80;;;;;;;;;;5034270;28;21001;-65
2023/07/28 15:03:27;;;;;;;3.63;3.33;;;;;;;;;;5034047;28;20649;-65
2023/07/28 15:05:56;;;;;;;3.30;3.10;;;;;;;;;;5033614;28;20992;-65